Time;durP1;ratioP1;P1;durP2;ratioP2;P2;SDS_P1;SDS_P2;PMS_P1;PMS_P2;Temp;Humidity;BMP_temperature;BMP_pressure;BME280_temperature;BME280_humidity;BME280_pressure;Samples;Min_cycle;Max_cycle;Signal;HPM_P1;HPM_P2
2023/09/29 00:00:45;;;;;;;1.17;1.08;;;;;;;15.60;75.95;100205.28;5076431;28;20132;-65
2023/09/29 00:03:15;;;;;;;1.63;1.53;;;;;;;15.54;76.12;100203.66;5076449;28;20534;-65
2023/09/29 00:05:44;;;;;;;1.58;1.48;;;;;;;15.48;76.52;100208.84;5076340;28;20052;-65
2023/09/29 00:08:16;;;;;;;0.75;0.75;;;;;;;15.43;76.43;100215.75;5076575;28;20499;-65
2023/09/29 00:10:45;;;;;;;0.85;0.85;;;;;;;15.43;76.73;100215.75;5076539;28;20047;-65
2023/09/29 00:13:14;;;;;;;1.93;1.77;;;;;;;15.51;76.49;100213.09;5076509;28;20052;-65
2023/09/29 00:15:43;;;;;;;3.75;2.65;;;;;;;15.62;76.65;100211.28;5075979;28;20040;-65
2023/09/29 00:18:12;;;;;;;5.63;1.20;;;;;;;15.70;76.17;100209.44;5076080;28;20059;-65
2023/09/29 00:20:41;;;;;;;1.42;1.33;;;;;;;15.73;75.73;100205.13;5076384;28;20106;-65
2023/09/29 00:23:14;;;;;;;2.27;1.57;;;;;;;15.75;75.97;100213.66;5076088;28;20094;-65
2023/09/29 00:25:45;;;;;;;0.75;0.75;;;;;;;15.68;75.28;100212.03;5075998;28;20094;-65
2023/09/29 00:28:14;;;;;;;2.35;1.70;;;;;;;15.65;75.90;100211.22;5076294;28;20045;-65
2023/09/29 00:30:43;;;;;;;0.90;0.90;;;;;;;15.68;75.80;100212.03;5074722;28;20508;-65
2023/09/29 00:33:12;;;;;;;1.95;1.45;;;;;;;15.68;75.85;100206.03;5076101;28;20121;-65
2023/09/29 00:35:41;;;;;;;0.50;0.50;;;;;;;15.64;75.70;100196.66;5076135;28;20036;-65
2023/09/29 00:38:10;;;;;;;1.77;1.65;;;;;;;15.61;75.68;100194.97;5074509;28;20519;-65
2023/09/29 00:40:39;;;;;;;3.88;2.05;;;;;;;15.63;75.80;100193.22;5074569;28;20041;-65
2023/09/29 00:43:09;;;;;;;34.47;3.45;;;;;;;15.63;75.57;100193.22;5075746;28;20043;-65
2023/09/29 00:45:39;;;;;;;3.00;1.20;;;;;;;15.56;76.12;100190.75;5075674;28;20059;-66
2023/09/29 00:48:10;;;;;;;1.33;1.23;;;;;;;15.45;75.90;100193.47;5073209;28;20135;-65
2023/09/29 00:50:40;;;;;;;0.68;0.68;;;;;;;15.32;76.36;100191.88;5074382;28;20051;-66
2023/09/29 00:53:13;;;;;;;1.17;1.08;;;;;;;15.20;76.20;100186.88;5075804;28;20405;-66
2023/09/29 00:55:45;;;;;;;1.08;0.98;;;;;;;15.11;76.97;100187.84;5075784;28;20158;-66
2023/09/29 00:58:17;;;;;;;1.42;1.08;;;;;;;15.09;76.92;100181.00;5075377;28;20052;-66
2023/09/29 01:00:46;;;;;;;0.95;0.93;;;;;;;15.03;76.93;100183.63;5074478;28;20427;-66
2023/09/29 01:03:15;;;;;;;0.73;0.70;;;;;;;15.00;76.94;100181.09;5075587;28;20463;-66
2023/09/29 01:05:47;;;;;;;2.38;1.70;;;;;;;15.13;77.43;100187.81;5074035;28;20123;-66
2023/09/29 01:08:20;;;;;;;1.10;1.00;;;;;;;15.12;77.22;100183.53;5075478;28;20057;-66
2023/09/29 01:10:50;;;;;;;1.25;1.15;;;;;;;15.20;77.22;100186.88;5074480;28;20464;-66
2023/09/29 01:13:21;;;;;;;1.15;1.05;;;;;;;15.23;77.39;100179.13;5073921;28;20044;-66
2023/09/29 01:15:50;;;;;;;1.08;0.98;;;;;;;15.27;77.67;100183.34;5075269;28;20072;-65
2023/09/29 01:18:19;;;;;;;0.75;0.75;;;;;;;15.28;77.85;100182.50;5073834;28;20047;-66
2023/09/29 01:20:49;;;;;;;1.25;1.13;;;;;;;15.25;77.47;100179.97;5074919;28;20550;-66
2023/09/29 01:23:17;;;;;;;0.77;0.77;;;;;;;15.18;77.45;100178.31;5074953;28;20063;-66
2023/09/29 01:25:48;;;;;;;1.75;1.65;;;;;;;15.16;77.55;100177.50;5075943;28;20109;-65
2023/09/29 01:28:17;;;;;;;1.35;1.10;;;;;;;15.23;77.72;100182.56;5075144;28;20064;-66
2023/09/29 01:30:46;;;;;;;1.37;1.20;;;;;;;15.17;77.93;100176.59;5075028;28;20040;-65
2023/09/29 01:33:14;;;;;;;0.95;0.93;;;;;;;15.07;77.93;100181.00;5074954;28;20071;-65
2023/09/29 01:35:44;;;;;;;0.83;0.83;;;;;;;15.05;78.06;100179.31;5074667;28;20052;-66
2023/09/29 01:38:13;;;;;;;0.75;0.75;;;;;;;15.04;77.96;100185.34;5073482;28;20048;-65
2023/09/29 01:40:44;;;;;;;1.33;1.23;;;;;;;15.11;77.89;100182.69;5073349;28;20052;-65
2023/09/29 01:43:18;;;;;;;0.80;0.80;;;;;;;15.10;77.85;100182.69;5074328;28;20059;-66
2023/09/29 01:45:48;;;;;;;0.90;0.90;;;;;;;15.03;78.34;100189.63;5074359;28;20048;-65
2023/09/29 01:48:18;;;;;;;1.13;1.02;;;;;;;15.04;78.24;100190.50;5074341;28;20408;-66
2023/09/29 01:50:47;;;;;;;0.95;0.85;;;;;;;15.13;77.89;100195.53;5074292;28;20079;-66
2023/09/29 01:53:16;;;;;;;0.63;0.63;;;;;;;15.10;77.93;100190.41;5074194;28;20044;-66
2023/09/29 01:55:47;;;;;;;0.65;0.65;;;;;;;15.12;77.98;100188.66;5075075;28;20136;-66
2023/09/29 01:58:18;;;;;;;1.20;1.08;;;;;;;15.16;78.13;100195.50;5074478;28;20137;-66
2023/09/29 02:00:49;;;;;;;1.38;1.20;;;;;;;15.25;78.33;100185.09;5072736;28;20045;-66
2023/09/29 02:03:18;;;;;;;5.47;1.50;;;;;;;15.24;77.93;100183.38;5073233;28;20060;-66
2023/09/29 02:05:48;;;;;;;1.67;1.45;;;;;;;15.23;77.62;100182.56;5072867;28;20033;-65
2023/09/29 02:08:18;;;;;;;1.40;1.30;;;;;;;15.30;77.42;100183.31;5074346;28;20143;-65
2023/09/29 02:10:49;;;;;;;1.30;1.20;;;;;;;15.35;77.34;100178.97;5074390;28;20046;-66
2023/09/29 02:13:19;;;;;;;1.17;1.00;;;;;;;15.31;77.61;100182.44;5072570;28;20050;-66
2023/09/29 02:15:51;;;;;;;0.65;0.65;;;;;;;15.25;77.63;100180.81;5072874;28;20052;-66
2023/09/29 02:18:20;;;;;;;0.55;0.55;;;;;;;15.19;77.61;100180.88;5072902;28;20041;-65
2023/09/29 02:20:50;;;;;;;2.42;1.63;;;;;;;15.11;77.52;100186.97;5072898;28;20048;-66
2023/09/29 02:23:20;;;;;;;1.65;1.50;;;;;;;15.07;77.53;100191.28;5073733;28;20071;-66
2023/09/29 02:25:49;;;;;;;;;;;;;;;15.07;77.41;100195.59;5072979;28;20037;-65
2023/09/29 02:28:19;;;;;;;2.07;1.20;;;;;;;15.03;77.37;100191.34;5073721;28;19927;-65
2023/09/29 02:30:48;;;;;;;1.70;1.10;;;;;;;15.03;77.63;100193.91;5074076;28;20054;-66
2023/09/29 02:33:17;;;;;;;1.92;1.63;;;;;;;15.04;77.80;100195.63;5073659;28;20047;-66
2023/09/29 02:35:46;;;;;;;2.15;1.38;;;;;;;14.98;78.12;100200.81;5073614;28;20500;-66
2023/09/29 02:38:15;;;;;;;1.53;1.37;;;;;;;14.95;78.28;100195.72;5073604;28;20043;-66
2023/09/29 02:40:46;;;;;;;1.63;1.38;;;;;;;14.71;77.83;100197.66;5072756;28;20070;-66
2023/09/29 02:43:16;;;;;;;2.33;1.73;;;;;;;14.73;78.34;100201.06;5073461;28;20095;-66
2023/09/29 02:45:46;;;;;;;1.13;1.02;;;;;;;14.69;78.55;100207.09;5073431;28;20416;-66
2023/09/29 02:48:17;;;;;;;1.85;1.75;;;;;;;14.63;78.94;100204.59;5074059;28;20400;-66
2023/09/29 02:50:47;;;;;;;2.17;1.98;;;;;;;14.63;78.37;100208.88;5073464;28;20049;-66
2023/09/29 02:53:17;;;;;;;0.82;0.80;;;;;;;14.52;78.58;100210.66;5073571;28;20135;-66
2023/09/29 02:55:46;;;;;;;1.30;1.05;;;;;;;14.36;78.96;100215.09;5072494;28;20454;-65
2023/09/29 02:58:19;;;;;;;0.88;0.88;;;;;;;14.34;79.23;100210.81;5073372;28;20048;-66
2023/09/29 03:00:50;;;;;;;1.17;1.08;;;;;;;14.42;79.12;100212.44;5073429;28;20045;-66
2023/09/29 03:03:19;;;;;;;1.25;1.15;;;;;;;14.36;79.38;100209.09;5073380;28;20079;-65
2023/09/29 03:05:49;;;;;;;0.95;0.70;;;;;;;14.32;79.50;100207.41;5072426;28;20059;-66
2023/09/29 03:08:18;;;;;;;2.75;1.10;;;;;;;14.29;79.53;100200.56;5073570;28;20512;-66
2023/09/29 03:10:47;;;;;;;1.13;1.02;;;;;;;14.22;79.63;100209.16;5073488;28;20036;-66
2023/09/29 03:13:16;;;;;;;4.80;2.08;;;;;;;14.19;79.26;100208.31;5077331;28;20040;-66
2023/09/29 03:15:45;;;;;;;0.80;0.80;;;;;;;14.09;79.65;100205.81;5077303;28;20045;-65
2023/09/29 03:18:15;;;;;;;1.60;1.35;;;;;;;14.13;79.85;100201.53;5077855;28;20067;-66
2023/09/29 03:20:44;;;;;;;1.10;1.00;;;;;;;14.08;79.66;100209.22;5077285;28;20060;-66
2023/09/29 03:23:13;;;;;;;2.35;1.55;;;;;;;14.11;79.70;100198.94;5075991;28;20044;-66
2023/09/29 03:25:42;;;;;;;0.93;0.90;;;;;;;14.12;79.50;100204.94;5077157;28;20051;-66
2023/09/29 03:28:11;;;;;;;1.30;1.20;;;;;;;14.11;79.84;100200.66;5075990;28;20078;-66
2023/09/29 03:30:40;;;;;;;1.30;1.20;;;;;;;14.11;79.82;100205.81;5077079;28;20048;-66
2023/09/29 03:33:10;;;;;;;1.60;1.35;;;;;;;14.11;79.49;100203.22;5076995;28;20135;-65
2023/09/29 03:35:42;;;;;;;21.58;1.60;;;;;;;14.07;79.62;100196.41;5076939;28;20599;-66
2023/09/29 03:38:14;;;;;;;1.05;0.95;;;;;;;14.03;79.99;100199.88;5076899;28;20059;-65
2023/09/29 03:40:44;;;;;;;1.45;1.15;;;;;;;14.03;79.72;100199.88;5076995;28;20048;-66
2023/09/29 03:43:13;;;;;;;4.97;1.42;;;;;;;13.99;79.81;100195.59;5076928;28;20412;-66
2023/09/29 03:45:42;;;;;;;1.37;1.27;;;;;;;13.89;79.85;100199.94;5077046;28;20052;-66
2023/09/29 03:48:11;;;;;;;1.58;1.33;;;;;;;13.96;80.21;100203.34;5076684;28;20194;-66
2023/09/29 03:50:43;;;;;;;1.40;1.30;;;;;;;14.01;80.34;100202.44;5077218;28;20052;-66
2023/09/29 03:53:13;;;;;;;1.17;1.05;;;;;;;14.07;80.57;100191.28;5076879;28;20053;-65
2023/09/29 03:55:41;;;;;;;2.40;2.20;;;;;;;14.19;79.95;100201.47;5076783;28;20527;-66
2023/09/29 03:58:11;;;;;;;2.08;1.75;;;;;;;14.25;79.77;100191.19;5076525;28;20064;-65
2023/09/29 04:00:40;;;;;;;3.97;1.63;;;;;;;14.31;80.24;100195.44;5077173;28;20067;-65
2023/09/29 04:03:08;;;;;;;1.20;1.15;;;;;;;14.36;79.64;100188.53;5076812;28;20048;-65
2023/09/29 04:05:37;;;;;;;1.60;1.48;;;;;;;14.34;79.42;100191.13;5076669;28;20511;-66
2023/09/29 04:08:08;;;;;;;1.67;1.58;;;;;;;14.35;79.44;100192.81;5075620;28;20084;-65
2023/09/29 04:10:37;;;;;;;1.25;1.15;;;;;;;14.36;79.46;100189.41;5076298;28;20044;-65
2023/09/29 04:13:06;;;;;;;1.45;1.33;;;;;;;14.41;79.16;100176.53;5076245;28;20052;-66
2023/09/29 04:15:36;;;;;;;2.13;1.63;;;;;;;14.34;79.29;100186.00;5076614;28;20388;-65
2023/09/29 04:18:06;;;;;;;1.10;0.95;;;;;;;14.30;79.06;100184.28;5076093;28;20048;-66
2023/09/29 04:20:35;;;;;;;1.05;0.95;;;;;;;14.32;79.51;100192.00;5076168;28;20052;-67
2023/09/29 04:23:08;;;;;;;1.20;1.10;;;;;;;14.34;79.17;100190.28;5075949;28;20049;-65
2023/09/29 04:25:37;;;;;;;1.30;1.20;;;;;;;14.28;79.32;100195.41;5076135;28;20045;-65
2023/09/29 04:28:07;;;;;;;4.18;2.05;;;;;;;14.28;79.48;100191.13;5076126;28;20036;-65
2023/09/29 04:30:36;;;;;;;1.58;1.25;;;;;;;14.29;79.70;100192.84;5075925;28;20127;-66
2023/09/29 04:33:05;;;;;;;1.83;1.63;;;;;;;14.32;79.10;100192.88;5075908;28;20068;-65
2023/09/29 04:35:34;;;;;;;1.55;1.02;;;;;;;14.32;79.56;100192.00;5076029;28;20045;-66
2023/09/29 04:38:03;;;;;;;1.25;1.15;;;;;;;14.36;79.06;100189.41;5075973;28;20041;-66
2023/09/29 04:40:34;;;;;;;2.42;1.35;;;;;;;14.34;79.10;100196.28;5075794;28;20048;-66
2023/09/29 04:43:03;;;;;;;1.67;1.30;;;;;;;14.35;79.43;100187.69;5076055;28;20496;-66
2023/09/29 04:45:33;;;;;;;1.67;1.40;;;;;;;14.34;79.48;100188.56;5075696;28;20094;-66
2023/09/29 04:48:03;;;;;;;1.25;1.15;;;;;;;14.29;79.72;100192.84;5075904;28;20428;-66
2023/09/29 04:50:34;;;;;;;1.42;1.15;;;;;;;14.35;79.92;100197.13;5075525;28;20148;-66
2023/09/29 04:53:03;;;;;;;2.25;1.67;;;;;;;14.38;79.61;100200.50;5075582;28;20044;-65
2023/09/29 04:55:33;;;;;;;0.80;0.80;;;;;;;14.41;79.52;100195.34;5075417;28;20045;-65
2023/09/29 04:58:02;;;;;;;2.10;1.02;;;;;;;14.48;79.34;100199.56;5075629;28;20052;-66
2023/09/29 05:00:31;;;;;;;1.38;1.27;;;;;;;14.46;79.18;100195.31;5075397;28;20063;-66
2023/09/29 05:03:04;;;;;;;0.88;0.88;;;;;;;14.47;79.03;100192.72;5075600;28;20071;-66
2023/09/29 05:05:33;;;;;;;3.58;2.40;;;;;;;14.51;79.12;100199.56;5075580;28;20048;-66
2023/09/29 05:08:02;;;;;;;3.10;1.55;;;;;;;14.53;79.43;100194.41;5075516;28;20036;-66
2023/09/29 05:10:31;;;;;;;1.20;1.10;;;;;;;14.53;78.81;100192.69;5075138;28;20045;-66
2023/09/29 05:13:01;;;;;;;2.50;1.73;;;;;;;14.59;78.80;100192.63;5075221;28;20489;-66
2023/09/29 05:15:32;;;;;;;1.42;1.33;;;;;;;14.64;79.02;100198.56;5075093;28;20128;-66
2023/09/29 05:18:01;;;;;;;0.80;0.80;;;;;;;14.65;78.94;100187.44;5075157;28;20060;-66
2023/09/29 05:20:30;;;;;;;4.27;2.20;;;;;;;14.70;78.46;100198.53;5075314;28;20041;-66
2023/09/29 05:22:59;;;;;;;1.58;1.27;;;;;;;14.68;78.77;100192.53;5075326;28;20063;-65
2023/09/29 05:25:28;;;;;;;2.55;1.80;;;;;;;14.64;78.67;100196.00;5074867;28;20072;-66
2023/09/29 05:27:57;;;;;;;1.43;1.13;;;;;;;14.68;79.23;100201.97;5075473;28;20424;-66
2023/09/29 05:30:27;;;;;;;1.33;1.17;;;;;;;14.74;78.94;100197.63;5074710;28;20283;-65
2023/09/29 05:32:56;;;;;;;1.50;1.40;;;;;;;14.82;79.46;100200.13;5074816;28;20131;-66
2023/09/29 05:35:25;;;;;;;0.90;0.90;;;;;;;14.89;79.19;100203.47;5073970;28;20040;-65
2023/09/29 05:37:54;;;;;;;1.20;1.10;;;;;;;14.94;79.10;100199.16;5074646;28;20037;-66
2023/09/29 05:40:23;;;;;;;0.98;0.93;;;;;;;15.00;78.68;100201.66;5074562;28;20040;-66
2023/09/29 05:42:52;;;;;;;1.65;1.38;;;;;;;15.07;79.22;100198.19;5074761;28;20515;-66
2023/09/29 05:45:21;;;;;;;1.67;1.58;;;;;;;15.18;79.07;100196.31;5070648;28;20056;-66
2023/09/29 05:47:52;;;;;;;3.70;1.90;;;;;;;15.27;79.01;100202.22;5074055;28;20496;-66
2023/09/29 05:50:22;;;;;;;1.40;1.10;;;;;;;15.30;78.44;100199.63;5074348;28;20123;-66
2023/09/29 05:52:51;;;;;;;0.98;0.88;;;;;;;15.37;78.59;100211.53;5074562;28;20113;-66
2023/09/29 05:55:38;;;;;;;1.95;1.50;;;;;;;15.47;78.25;100204.59;5073507;28;20098;-66
2023/09/29 05:58:07;;;;;;;3.45;1.73;;;;;;;15.52;78.34;100205.38;5074246;28;20164;-66
2023/09/29 06:00:36;;;;;;;1.50;1.40;;;;;;;15.62;78.07;100204.38;5074073;28;20048;-66
2023/09/29 06:03:06;;;;;;;1.55;1.45;;;;;;;15.67;78.06;100210.31;5074401;28;20452;-66
2023/09/29 06:05:35;;;;;;;2.65;1.90;;;;;;;15.72;78.36;100215.41;5073409;28;20052;-66
2023/09/29 06:08:06;;;;;;;1.95;1.75;;;;;;;15.84;78.22;100216.09;5073992;28;20049;-66
2023/09/29 06:10:35;;;;;;;2.80;2.20;;;;;;;15.93;78.08;100217.72;5073914;28;20045;-66
2023/09/29 06:13:04;;;;;;;3.07;1.70;;;;;;;16.00;78.11;100219.34;5075207;28;20439;-66
2023/09/29 06:15:33;;;;;;;2.25;2.05;;;;;;;16.15;77.81;100228.56;5077793;28;20368;-66
2023/09/29 06:18:02;;;;;;;2.90;1.95;;;;;;;16.23;77.43;100229.28;5074019;28;20044;-66
2023/09/29 06:20:33;;;;;;;0.80;0.80;;;;;;;16.29;77.59;100226.63;5074204;28;20045;-65
2023/09/29 06:23:02;;;;;;;1.52;1.42;;;;;;;16.36;77.29;100228.25;5074241;28;20040;-65
2023/09/29 06:25:31;;;;;;;2.05;1.40;;;;;;;16.42;76.85;100226.41;5074969;28;20044;-66
2023/09/29 06:28:00;;;;;;;0.70;0.70;;;;;;;16.46;76.77;100222.06;5074292;28;20044;-65
2023/09/29 06:30:29;;;;;;;8.10;2.05;;;;;;;16.54;76.58;100222.81;5073919;28;20048;-64
2023/09/29 06:32:58;;;;;;;2.17;1.70;;;;;;;16.63;76.27;100228.66;5073653;28;20037;-66
2023/09/29 06:35:27;;;;;;;1.90;1.45;;;;;;;16.69;76.06;100226.00;5073489;28;20032;-65
2023/09/29 06:37:57;;;;;;;1.73;1.63;;;;;;;16.72;75.57;100227.69;5072653;28;20044;-64
2023/09/29 06:40:27;;;;;;;0.88;0.73;;;;;;;16.75;75.24;100222.47;5072398;28;20040;-67
2023/09/29 06:42:56;;;;;;;1.17;1.08;;;;;;;16.89;74.88;100225.69;5073315;28;20044;-65
2023/09/29 06:45:27;;;;;;;1.30;1.20;;;;;;;16.98;74.43;100225.50;5072439;28;20133;-64
2023/09/29 06:48:16;;;;;;;1.13;1.00;;;;;;;16.98;74.36;100230.66;5076699;28;20484;-65
2023/09/29 06:50:48;;;;;;;2.45;1.73;;;;;;;17.00;73.94;100225.47;5072397;28;20032;-66
2023/09/29 06:53:20;;;;;;;6.85;2.55;;;;;;;17.05;73.99;100237.41;5073669;28;20055;-65
2023/09/29 06:55:49;;;;;;;1.40;1.30;;;;;;;17.16;73.65;100235.47;5073343;28;20044;-65
2023/09/29 06:58:18;;;;;;;1.57;1.23;;;;;;;17.25;73.57;100230.13;5073099;28;20127;-68
2023/09/29 07:00:47;;;;;;;4.75;2.25;;;;;;;17.38;73.48;100234.19;5073405;28;20064;-64
2023/09/29 07:03:15;;;;;;;1.53;1.40;;;;;;;17.44;72.96;100236.63;5073277;28;20049;-65
2023/09/29 07:05:46;;;;;;;4.13;2.28;;;;;;;17.52;72.73;100233.09;5073350;28;20293;-65
2023/09/29 07:08:15;;;;;;;2.15;1.65;;;;;;;17.64;72.44;100233.69;5073302;28;20504;-65
2023/09/29 07:10:45;;;;;;;1.13;1.03;;;;;;;17.73;72.03;100237.84;5073094;28;20510;-65
2023/09/29 07:13:16;;;;;;;1.00;0.90;;;;;;;17.81;71.86;100241.94;5073929;28;20115;-66
2023/09/29 07:15:45;;;;;;;1.02;0.95;;;;;;;17.90;71.34;100241.75;5071435;28;20044;-65
2023/09/29 07:18:15;;;;;;;3.97;2.72;;;;;;;18.03;71.42;100242.34;5073225;28;20053;-64
2023/09/29 07:20:45;;;;;;;2.88;1.30;;;;;;;18.15;71.09;100247.22;5073274;28;20535;-65
2023/09/29 07:23:14;;;;;;;2.00;1.40;;;;;;;18.24;70.63;100241.84;5073142;28;20052;-65
2023/09/29 07:25:43;;;;;;;0.40;0.40;;;;;;;18.30;70.39;100240.88;5073330;28;20151;-64
2023/09/29 07:28:16;;;;;;;2.30;2.10;;;;;;;18.35;70.28;100237.31;5074113;28;20400;-65
2023/09/29 07:30:46;;;;;;;1.90;1.17;;;;;;;18.45;69.76;100240.53;5073264;28;20060;-65
2023/09/29 07:33:14;;;;;;;;;;;;;;;18.55;69.33;100237.69;5073084;28;20478;-64
2023/09/29 07:35:44;;;;;;;1.25;1.15;;;;;;;18.67;69.18;100242.56;5072779;28;19920;-65
2023/09/29 07:38:14;;;;;;;1.55;1.35;;;;;;;18.83;68.87;100242.19;5073069;28;20063;-64
2023/09/29 07:40:43;;;;;;;2.97;2.15;;;;;;;18.96;68.54;100248.75;5073219;28;20037;-64
2023/09/29 07:43:12;;;;;;;1.35;1.23;;;;;;;19.09;68.31;100250.13;5073423;28;20507;-66
2023/09/29 07:45:42;;;;;;;1.07;1.00;;;;;;;19.19;68.09;100241.25;5072812;28;20067;-65
2023/09/29 07:48:14;;;;;;;0.85;0.85;;;;;;;19.31;67.77;100241.78;5072541;28;20469;-65
2023/09/29 07:50:44;;;;;;;1.67;1.23;;;;;;;19.43;67.57;100240.59;5072528;28;20048;-66
2023/09/29 07:53:12;;;;;;;1.48;1.10;;;;;;;19.54;67.28;100248.91;5072810;28;20094;-65
2023/09/29 07:55:41;;;;;;;1.45;1.20;;;;;;;19.60;66.79;100243.56;5072990;28;20044;-66
2023/09/29 07:58:10;;;;;;;1.67;1.58;;;;;;;19.64;66.55;100245.19;5075662;28;20075;-66
2023/09/29 08:00:39;;;;;;;1.08;0.98;;;;;;;19.74;66.33;100243.19;5076358;28;20504;-65
2023/09/29 08:03:09;;;;;;;4.10;2.83;;;;;;;19.83;66.00;100238.56;5075723;28;20512;-65
2023/09/29 08:05:38;;;;;;;2.20;1.63;;;;;;;19.90;66.01;100232.31;5076313;28;20049;-64
2023/09/29 08:08:07;;;;;;;1.63;1.50;;;;;;;20.01;65.72;100240.59;5076015;28;20048;-65
2023/09/29 08:10:36;;;;;;;1.73;1.37;;;;;;;20.18;65.38;100241.84;5076166;28;20094;-65
2023/09/29 08:13:05;;;;;;;0.98;0.95;;;;;;;20.29;65.15;100244.97;5076288;28;20307;-65
2023/09/29 08:15:34;;;;;;;1.27;1.17;;;;;;;20.37;64.80;100248.19;5076356;28;20447;-65
2023/09/29 08:18:03;;;;;;;1.07;0.90;;;;;;;20.44;64.33;100245.34;5078846;28;20040;-65
2023/09/29 08:20:35;;;;;;;0.60;0.60;;;;;;;20.50;64.33;100247.75;5074736;28;20036;-66
2023/09/29 08:23:05;;;;;;;1.70;1.60;;;;;;;20.61;64.08;100247.41;5076049;28;20059;-65
2023/09/29 08:25:34;;;;;;;0.90;0.90;;;;;;;20.70;64.05;100265.25;5076575;28;20041;-65
2023/09/29 08:28:03;;;;;;;2.15;1.65;;;;;;;20.82;64.27;100254.50;5075922;28;20090;-65
2023/09/29 08:30:31;;;;;;;2.35;1.27;;;;;;;20.97;63.84;100251.34;5075656;28;20041;-65
2023/09/29 08:33:01;;;;;;;32.38;17.25;;;;;;;21.05;63.60;100253.72;5076274;28;20040;-65
2023/09/29 08:35:49;;;;;;;7.28;5.40;;;;;;;21.19;63.00;100247.16;5076794;28;20039;-66
2023/09/29 08:38:19;;;;;;;2.88;1.73;;;;;;;21.29;63.25;100243.34;5075895;28;20128;-65
2023/09/29 08:40:52;;;;;;;1.58;1.30;;;;;;;21.46;63.33;100247.09;5075717;28;20056;-65
2023/09/29 08:43:21;;;;;;;1.85;1.33;;;;;;;21.63;63.07;100245.56;5075666;28;20242;-65
2023/09/29 08:45:50;;;;;;;2.42;1.80;;;;;;;21.69;62.60;100247.09;5075840;28;20132;-65
2023/09/29 08:48:20;;;;;;;1.88;0.88;;;;;;;21.82;62.27;100243.13;5075584;28;20094;-65
2023/09/29 08:50:55;;;;;;;1.58;1.38;;;;;;;21.88;61.38;100245.56;5075546;28;20047;-65
2023/09/29 08:53:27;;;;;;;1.23;0.90;;;;;;;21.95;61.25;100249.63;5074857;28;20056;-64
2023/09/29 08:55:57;;;;;;;1.45;1.02;;;;;;;22.14;61.44;100247.16;5075455;28;20497;-65
2023/09/29 08:58:26;;;;;;;1.05;0.90;;;;;;;22.34;61.83;100242.84;5075404;28;20044;-65
2023/09/29 09:00:55;;;;;;;3.80;1.27;;;;;;;22.43;61.29;100246.84;5075645;28;20435;-65
2023/09/29 09:03:24;;;;;;;2.67;1.70;;;;;;;22.46;59.91;100247.56;5075302;28;20055;-65
2023/09/29 09:05:55;;;;;;;1.88;1.58;;;;;;;22.48;59.24;100248.34;5074576;28;20492;-65
2023/09/29 09:08:26;;;;;;;0.90;0.90;;;;;;;22.60;59.01;100242.63;5074407;28;20135;-66
2023/09/29 09:11:00;;;;;;;1.75;0.95;;;;;;;22.85;59.95;100244.25;5075281;28;20169;-65
2023/09/29 09:13:29;;;;;;;1.40;1.17;;;;;;;22.87;58.83;100237.22;5075158;28;20041;-65
2023/09/29 09:16:00;;;;;;;0.60;0.60;;;;;;;22.98;58.18;100242.84;5075403;28;20036;-65
2023/09/29 09:18:29;;;;;;;1.40;1.30;;;;;;;23.01;57.58;100240.13;5074995;28;20044;-65
2023/09/29 09:20:59;;;;;;;2.25;1.48;;;;;;;23.01;57.14;100240.94;5075018;28;20037;-65
2023/09/29 09:23:38;;;;;;;0.80;0.80;;;;;;;23.19;57.46;100231.50;5077667;28;20490;-65
2023/09/29 09:26:15;;;;;;;1.50;1.40;;;;;;;23.37;56.75;100238.53;5074940;28;20049;-65
2023/09/29 09:28:44;;;;;;;1.23;0.77;;;;;;;23.49;56.38;100238.00;5074961;28;20563;-66
2023/09/29 09:31:13;;;;;;;3.25;1.48;;;;;;;23.61;55.43;100242.66;5074741;28;20067;-65
2023/09/29 09:33:49;;;;;;;0.50;0.50;;;;;;;23.68;54.98;100238.84;5074714;28;20049;-65
2023/09/29 09:36:20;;;;;;;0.80;0.80;;;;;;;23.89;55.71;100242.25;5073604;28;20048;-66
2023/09/29 09:38:50;;;;;;;1.40;1.13;;;;;;;23.95;55.09;100242.81;5074131;28;20064;-65
2023/09/29 09:41:20;;;;;;;1.30;1.20;;;;;;;24.02;54.77;100239.00;5074592;28;20075;-65
2023/09/29 09:43:49;;;;;;;2.72;1.73;;;;;;;24.16;54.88;100235.78;5074693;28;20056;-65
2023/09/29 09:46:20;;;;;;;1.45;1.35;;;;;;;24.31;54.90;100239.41;5074733;28;20147;-66
2023/09/29 09:48:55;;;;;;;0.77;0.73;;;;;;;24.41;54.21;100241.53;5074713;28;20397;-66
2023/09/29 09:51:33;;;;;;;1.10;0.93;;;;;;;24.47;53.58;100240.38;5074330;28;20041;-66
2023/09/29 09:54:03;;;;;;;1.23;0.70;;;;;;;24.51;53.54;100241.91;5076013;28;20102;-65
2023/09/29 09:56:40;;;;;;;1.75;1.15;;;;;;;24.58;53.06;100236.31;5074634;28;20075;-67
2023/09/29 09:59:11;;;;;;;0.77;0.70;;;;;;;24.68;52.71;100236.72;5072529;28;20104;-66
2023/09/29 10:01:41;;;;;;;4.78;1.25;;;;;;;24.75;52.37;100235.50;5074133;28;20052;-65
2023/09/29 10:04:12;;;;;;;1.52;1.42;;;;;;;24.80;52.03;100232.66;5074436;28;20404;-65
2023/09/29 10:06:45;;;;;;;1.13;0.85;;;;;;;24.83;51.96;100228.16;5074422;28;20111;-66
2023/09/29 10:09:14;;;;;;;3.42;1.20;;;;;;;24.86;51.48;100227.16;5073351;28;20044;-67
2023/09/29 10:11:44;;;;;;;0.60;0.60;;;;;;;24.98;51.65;100229.97;5073974;28;20044;-65
2023/09/29 10:14:13;;;;;;;1.15;1.02;;;;;;;25.10;51.28;100226.72;5074300;28;20133;-65
2023/09/29 10:16:42;;;;;;;0.93;0.90;;;;;;;25.14;51.12;100228.28;5073869;28;20045;-66
2023/09/29 10:19:12;;;;;;;0.65;0.65;;;;;;;25.22;50.93;100226.09;5074128;28;20519;-65
2023/09/29 10:21:45;;;;;;;0.70;0.70;;;;;;;25.30;49.37;100226.56;5073668;28;20052;-66
2023/09/29 10:24:25;;;;;;;3.17;0.85;;;;;;;25.42;49.25;100226.81;5073307;28;20066;-66
2023/09/29 10:26:54;;;;;;;1.02;0.93;;;;;;;25.50;48.64;100224.69;5073733;28;20129;-66
2023/09/29 10:29:27;;;;;;;1.52;1.42;;;;;;;25.56;49.08;100214.75;5073810;28;20102;-66
2023/09/29 10:32:13;;;;;;;1.20;0.98;;;;;;;25.61;48.93;100211.88;5073892;28;20127;-67
2023/09/29 10:34:44;;;;;;;1.13;1.02;;;;;;;25.66;49.03;100220.31;5075056;28;20420;-66
2023/09/29 10:37:15;;;;;;;1.27;1.17;;;;;;;25.78;48.31;100214.41;5073114;28;20074;-65
2023/09/29 10:39:48;;;;;;;0.68;0.68;;;;;;;25.79;48.17;100213.50;5074171;28;20044;-66
2023/09/29 10:42:17;;;;;;;2.40;1.10;;;;;;;25.81;49.02;100203.81;5073576;28;20500;-66
2023/09/29 10:44:47;;;;;;;1.23;1.02;;;;;;;25.87;48.93;100208.69;5072907;28;20524;-65
2023/09/29 10:47:16;;;;;;;3.95;1.63;;;;;;;25.98;48.62;100206.34;5073481;28;20048;-66
2023/09/29 10:49:47;;;;;;;0.70;0.70;;;;;;;26.19;47.59;100210.41;5074117;28;20033;-66
2023/09/29 10:52:22;;;;;;;;;;;;;;;26.25;47.85;100209.22;5073846;28;20051;-66
2023/09/29 10:54:55;;;;;;;0.50;0.50;;;;;;;26.28;47.38;100215.09;5072466;28;19922;-68
2023/09/29 10:57:25;;;;;;;0.75;0.75;;;;;;;26.29;47.34;100195.00;5076280;28;20068;-65
2023/09/29 10:59:59;;;;;;;;;;;;;;;26.43;46.46;100197.69;5073672;28;20128;-66
2023/09/29 11:02:33;;;;;;;1.77;1.10;;;;;;;26.58;46.42;100186.34;5073480;28;19921;-65
2023/09/29 11:05:05;;;;;;;1.08;0.98;;;;;;;26.59;45.80;100186.22;5073211;28;20100;-66
2023/09/29 11:07:47;;;;;;;1.23;0.88;;;;;;;26.57;45.58;100180.25;5073584;28;20123;-65
2023/09/29 11:10:17;;;;;;;0.50;0.50;;;;;;;26.69;45.39;100177.81;5073351;28;20492;-65
2023/09/29 11:12:48;;;;;;;1.88;1.70;;;;;;;26.75;45.75;100167.88;5073452;28;20040;-66
2023/09/29 11:15:19;;;;;;;0.98;0.85;;;;;;;26.90;45.28;100166.13;5073181;28;20052;-66
2023/09/29 11:17:50;;;;;;;1.27;1.17;;;;;;;27.06;45.19;100161.63;5072212;28;20041;-68
2023/09/29 11:20:26;;;;;;;2.05;1.35;;;;;;;27.06;44.23;100169.50;5073274;28;20102;-67
2023/09/29 11:23:07;;;;;;;2.67;1.02;;;;;;;26.94;44.09;100160.59;5073219;28;20522;-67
2023/09/29 11:25:47;;;;;;;1.13;1.02;;;;;;;26.88;43.98;100160.97;5073080;28;20551;-66
2023/09/29 11:28:17;;;;;;;2.13;1.02;;;;;;;26.99;43.86;100155.94;5075386;28;20491;-66
2023/09/29 11:30:46;;;;;;;0.50;0.50;;;;;;;27.16;44.67;100157.53;5073125;28;20044;-66
2023/09/29 11:33:16;;;;;;;0.80;0.80;;;;;;;27.33;44.58;100141.56;5075697;28;20049;-66
2023/09/29 11:35:46;;;;;;;1.40;0.70;;;;;;;27.50;43.99;100145.81;5077033;28;20044;-66
2023/09/29 11:38:20;;;;;;;0.95;0.82;;;;;;;27.68;43.41;100144.66;5075930;28;20032;-66
2023/09/29 11:40:51;;;;;;;1.33;0.95;;;;;;;27.59;43.05;100140.84;5077258;28;20554;-65